createdAt,value
2023-01-21T00:02:56.017Z,20.37
2023-01-21T00:06:05.975Z,18.45
2023-01-21T00:09:22.005Z,25.70
2023-01-21T00:12:23.944Z,21.17
2023-01-21T00:15:39.109Z,20.77
2023-01-21T00:18:48.035Z,19.62
2023-01-21T00:21:56.727Z,28.27
2023-01-21T00:25:05.177Z,24.83
2023-01-21T00:28:39.212Z,24.52
2023-01-21T00:31:54.050Z,22.33
2023-01-21T00:35:02.746Z,20.40
2023-01-21T00:38:18.084Z,28.80
2023-01-21T00:41:27.003Z,22.27
2023-01-21T00:44:49.064Z,23.15
2023-01-21T00:48:03.959Z,21.02
2023-01-21T00:51:19.061Z,22.35
2023-01-21T00:54:21.118Z,25.35
2023-01-21T00:57:36.034Z,24.57
2023-01-21T01:00:38.180Z,24.33
2023-01-21T01:03:55.055Z,25.02
2023-01-21T01:07:04.131Z,22.75
2023-01-21T01:10:19.125Z,22.60
2023-01-21T01:13:35.293Z,23.33
2023-01-21T01:16:43.722Z,22.92
2023-01-21T01:19:52.100Z,23.95
2023-01-21T01:23:00.648Z,29.92
2023-01-21T01:26:12.051Z,28.77
2023-01-21T01:29:27.111Z,26.13
2023-01-21T01:32:28.878Z,27.52
2023-01-21T01:35:44.010Z,25.35
2023-01-21T01:39:01.060Z,22.67
2023-01-21T01:42:21.150Z,26.02
2023-01-21T01:45:36.168Z,24.47
2023-01-21T01:48:48.679Z,24.42
2023-01-21T01:52:03.045Z,25.33
2023-01-21T01:55:13.777Z,26.30
2023-01-21T01:58:26.112Z,26.65
2023-01-21T02:01:41.114Z,25.87
2023-01-21T02:04:48.060Z,23.05
2023-01-21T02:08:04.243Z,23.20
2023-01-21T02:11:12.365Z,23.45
2023-01-21T02:14:27.134Z,25.12
2023-01-21T02:17:50.052Z,23.30
2023-01-21T02:21:18.744Z,24.27
2023-01-21T02:24:56.148Z,22.02
2023-01-21T02:28:30.461Z,21.00
2023-01-21T02:31:59.105Z,19.92
2023-01-21T02:35:31.069Z,20.23
2023-01-21T02:38:45.175Z,37.25
2023-01-21T02:42:12.047Z,19.67
2023-01-21T02:45:30.108Z,18.98
2023-01-21T02:48:53.056Z,19.67
2023-01-21T02:51:55.191Z,17.27
2023-01-21T02:55:11.128Z,16.90
2023-01-21T02:58:18.068Z,18.25
2023-01-21T03:01:48.104Z,17.33
2023-01-21T03:05:11.152Z,17.27
2023-01-21T03:08:22.779Z,17.20
2023-01-21T03:11:32.083Z,17.33
2023-01-21T03:15:02.635Z,15.68
2023-01-21T03:18:31.348Z,19.25
2023-01-21T03:21:41.084Z,18.27
2023-01-21T03:24:53.060Z,17.63
2023-01-21T03:28:02.136Z,19.40
2023-01-21T03:31:19.048Z,19.48
2023-01-21T03:34:30.200Z,18.30
2023-01-21T03:37:56.088Z,16.55
2023-01-21T03:41:06.056Z,14.53
2023-01-21T03:44:21.179Z,14.65
2023-01-21T03:47:34.703Z,17.55
2023-01-21T03:50:58.210Z,16.27
2023-01-21T03:54:06.755Z,15.77
2023-01-21T03:57:15.105Z,16.73
2023-01-21T04:00:30.147Z,18.70
2023-01-21T04:03:32.387Z,17.90
2023-01-21T04:06:47.105Z,18.80
2023-01-21T04:09:49.630Z,18.42
2023-01-21T04:13:04.113Z,19.83
2023-01-21T04:16:13.109Z,18.70
2023-01-21T04:19:21.964Z,14.85
2023-01-21T04:22:31.121Z,16.10
2023-01-21T04:25:39.836Z,16.33
2023-01-21T04:28:48.096Z,17.93
2023-01-21T04:31:56.763Z,15.80
2023-01-21T04:35:05.118Z,19.00
2023-01-21T04:38:20.132Z,19.75
2023-01-21T04:41:28.770Z,16.17
2023-01-21T04:44:37.242Z,16.53
2023-01-21T04:47:59.088Z,15.85
2023-01-21T04:51:07.172Z,18.95
2023-01-21T04:54:22.230Z,15.85
2023-01-21T04:57:24.084Z,15.85
2023-01-21T05:00:39.112Z,17.83
2023-01-21T05:03:47.096Z,16.83
2023-01-21T05:07:02.155Z,17.95
2023-01-21T05:10:11.140Z,13.95
2023-01-21T05:13:19.716Z,18.98
2023-01-21T05:16:28.116Z,16.70
2023-01-21T05:19:36.755Z,13.48
2023-01-21T05:22:46.104Z,14.90
2023-01-21T05:25:54.793Z,16.37
2023-01-21T05:29:03.155Z,16.80
2023-01-21T05:32:18.112Z,15.90
2023-01-21T05:35:22.651Z,15.38
2023-01-21T05:38:38.193Z,15.65
2023-01-21T05:41:40.095Z,15.20
2023-01-21T05:44:55.370Z,17.67
2023-01-21T05:47:57.279Z,16.83
2023-01-21T05:51:12.219Z,20.35
2023-01-21T05:54:21.136Z,14.90
2023-01-21T05:57:37.166Z,14.63
2023-01-21T06:00:46.156Z,14.63
2023-01-21T06:04:01.137Z,13.63
2023-01-21T06:07:03.096Z,15.43
2023-01-21T06:10:18.526Z,15.73
2023-01-21T06:13:26.688Z,17.02
2023-01-21T06:16:35.153Z,15.55
2023-01-21T06:19:50.236Z,14.80
2023-01-21T06:23:08.168Z,16.48
2023-01-21T06:26:10.026Z,18.23
2023-01-21T06:29:25.157Z,17.40
2023-01-21T06:32:33.124Z,15.82
2023-01-21T06:35:41.995Z,21.93
2023-01-21T06:38:50.176Z,19.98
2023-01-21T06:42:06.168Z,21.08
2023-01-21T06:45:08.446Z,20.00
2023-01-21T06:48:30.124Z,17.75
2023-01-21T06:51:32.068Z,20.20
2023-01-21T06:54:47.120Z,18.15
2023-01-21T06:57:55.784Z,22.52
2023-01-21T07:01:04.189Z,18.52
2023-01-21T07:04:19.168Z,20.88
2023-01-21T07:07:21.036Z,20.07
2023-01-21T07:10:40.132Z,20.42
2023-01-21T07:13:42.008Z,18.65
2023-01-21T07:16:57.187Z,20.40
2023-01-21T07:20:05.161Z,18.15
2023-01-21T07:23:14.105Z,18.20
2023-01-21T07:26:22.125Z,15.95
2023-01-21T07:29:30.806Z,18.23
2023-01-21T07:32:47.297Z,20.50
2023-01-21T07:36:05.308Z,18.23
2023-01-21T07:39:10.469Z,16.43
2023-01-21T07:42:25.188Z,22.25
2023-01-21T07:45:40.442Z,15.10
2023-01-21T07:48:57.224Z,14.80
2023-01-21T07:52:05.828Z,17.42
2023-01-21T07:55:20.244Z,16.15
2023-01-21T07:58:30.159Z,21.63
2023-01-21T08:01:38.971Z,15.00
2023-01-21T08:04:48.296Z,16.90
2023-01-21T08:07:58.039Z,17.58
2023-01-21T08:11:06.205Z,20.05
2023-01-21T08:14:21.269Z,18.27
2023-01-21T08:17:23.212Z,15.73
2023-01-21T08:20:39.224Z,13.80
2023-01-21T08:23:41.193Z,16.73
2023-01-21T08:26:56.184Z,14.50
2023-01-21T08:30:12.151Z,19.33
2023-01-21T08:33:14.521Z,18.03
2023-01-21T08:36:29.281Z,17.50
2023-01-21T08:39:31.691Z,16.62
2023-01-21T08:42:47.176Z,24.05
2023-01-21T08:46:03.203Z,21.67
2023-01-21T08:49:12.180Z,28.07
2023-01-21T08:52:20.953Z,22.15
2023-01-21T08:55:36.268Z,23.48
2023-01-21T08:58:45.191Z,17.50
2023-01-21T09:01:55.090Z,19.13
2023-01-21T09:05:03.412Z,24.30
2023-01-21T09:08:11.975Z,27.08
2023-01-21T09:11:20.157Z,25.40
2023-01-21T09:14:35.263Z,19.30
2023-01-21T09:17:37.350Z,21.77
2023-01-21T09:20:52.255Z,24.23
2023-01-21T09:24:01.222Z,22.48
2023-01-21T09:27:10.198Z,19.60
2023-01-21T09:30:19.219Z,21.12
2023-01-21T09:33:29.556Z,18.83
2023-01-21T09:36:40.224Z,19.27
2023-01-21T09:39:49.281Z,19.40
2023-01-21T09:42:58.180Z,18.42
2023-01-21T09:46:30.197Z,17.90
2023-01-21T09:49:50.201Z,20.43
2023-01-21T09:53:20.223Z,20.50
2023-01-21T09:56:30.983Z,22.80
2023-01-21T10:00:09.228Z,31.75
2023-01-21T10:03:52.185Z,21.00
2023-01-21T10:07:10.879Z,26.63
2023-01-21T10:10:31.293Z,20.87
2023-01-21T10:14:09.291Z,19.37
2023-01-21T10:17:37.078Z,20.10
2023-01-21T10:20:54.230Z,19.55
2023-01-21T10:24:21.275Z,22.17
2023-01-21T10:27:30.231Z,17.73
2023-01-21T10:30:43.062Z,27.70
2023-01-21T10:33:51.254Z,19.62
2023-01-21T10:37:15.056Z,18.42
2023-01-21T10:40:39.344Z,20.33
2023-01-21T10:43:57.235Z,17.60
2023-01-21T10:47:39.273Z,20.42
2023-01-21T10:50:58.268Z,20.95
2023-01-21T10:54:24.190Z,17.08
2023-01-21T10:58:00.261Z,18.57
2023-01-21T11:01:28.247Z,21.00
2023-01-21T11:04:40.447Z,20.10
2023-01-21T11:07:49.283Z,22.30
2023-01-21T11:10:59.441Z,23.20
2023-01-21T11:14:08.302Z,20.53
2023-01-21T11:17:37.212Z,20.93
2023-01-21T11:20:49.312Z,22.23
2023-01-21T11:24:07.288Z,20.00
2023-01-21T11:27:19.017Z,19.95
2023-01-21T11:30:51.192Z,20.87
2023-01-21T11:33:55.700Z,20.37
2023-01-21T11:37:13.260Z,22.75
2023-01-21T11:40:30.301Z,22.48
2023-01-21T11:43:50.549Z,20.27
2023-01-21T11:47:37.295Z,22.57
2023-01-21T11:50:39.201Z,22.37
2023-01-21T11:53:54.267Z,22.65
2023-01-21T11:57:05.242Z,22.67
2023-01-21T12:00:27.252Z,24.67
2023-01-21T12:03:57.259Z,27.77
2023-01-21T12:07:06.113Z,34.23
2023-01-21T12:10:30.252Z,29.77
2023-01-21T12:14:14.371Z,33.25
2023-01-21T12:17:38.433Z,27.23
2023-01-21T12:21:11.244Z,26.10
2023-01-21T12:24:41.280Z,23.43
2023-01-21T12:28:28.303Z,28.15
2023-01-21T12:31:52.443Z,22.30
2023-01-21T12:35:24.415Z,21.35
2023-01-21T12:38:45.292Z,20.50
2023-01-21T12:42:31.281Z,22.03
2023-01-21T12:45:52.567Z,23.15
2023-01-21T12:49:20.302Z,20.02
2023-01-21T12:52:44.368Z,19.15
2023-01-21T12:56:12.251Z,17.63
2023-01-21T12:59:35.052Z,16.53
2023-01-21T13:03:10.285Z,15.68
2023-01-21T13:06:29.693Z,14.63
2023-01-21T13:10:01.267Z,16.05
2023-01-21T13:13:24.304Z,15.60
2023-01-21T13:16:38.480Z,14.57
2023-01-21T13:19:54.335Z,18.15
2023-01-21T13:23:08.155Z,17.27
2023-01-21T13:26:34.371Z,16.15
2023-01-21T13:29:53.068Z,25.63
2023-01-21T13:33:26.316Z,19.23
2023-01-21T13:37:01.311Z,15.73
2023-01-21T13:40:34.316Z,15.40
2023-01-21T13:44:12.771Z,16.27
2023-01-21T13:48:04.351Z,18.27
2023-01-21T13:51:40.512Z,14.97
2023-01-21T13:55:35.518Z,15.60
2023-01-21T13:59:01.646Z,13.07
2023-01-21T14:02:32.300Z,13.88
2023-01-21T14:06:00.324Z,15.50
2023-01-21T14:09:18.306Z,15.40
2023-01-21T14:12:56.327Z,14.60
2023-01-21T14:16:25.418Z,16.92
2023-01-21T14:20:00.355Z,14.27
2023-01-21T14:23:29.087Z,13.47
2023-01-21T14:27:14.843Z,18.63
2023-01-21T14:30:30.356Z,14.95
2023-01-21T14:33:52.719Z,12.57
2023-01-21T14:37:15.278Z,11.43
2023-01-21T14:40:31.289Z,9.97
2023-01-21T14:43:57.309Z,10.17
2023-01-21T14:47:11.121Z,11.10
2023-01-21T14:50:56.466Z,9.75
2023-01-21T14:54:09.436Z,10.02
2023-01-21T14:57:38.632Z,9.70
2023-01-21T15:00:52.400Z,6.77
2023-01-21T15:04:12.405Z,7.45
2023-01-21T15:07:19.567Z,6.75
2023-01-21T15:10:41.421Z,7.35
2023-01-21T15:13:43.407Z,9.23
2023-01-21T15:16:58.377Z,8.40
2023-01-21T15:20:30.136Z,8.98
2023-01-21T15:23:47.423Z,7.60
2023-01-21T15:27:19.391Z,7.87
2023-01-21T15:30:57.697Z,7.63
2023-01-21T15:34:21.549Z,8.73
2023-01-21T15:37:25.608Z,8.02
2023-01-21T15:40:48.424Z,9.60
2023-01-21T15:44:14.174Z,10.95
2023-01-21T15:47:58.349Z,10.70
2023-01-21T15:51:32.452Z,11.53
2023-01-21T15:54:51.650Z,24.20
2023-01-21T15:58:29.391Z,11.40
2023-01-21T16:01:39.643Z,10.40
2023-01-21T16:04:58.407Z,11.17
2023-01-21T16:08:20.891Z,18.33
2023-01-21T16:11:55.337Z,16.52
2023-01-21T16:15:11.539Z,18.00
2023-01-21T16:18:34.412Z,16.10
2023-01-21T16:21:47.397Z,14.67
2023-01-21T16:25:02.703Z,14.00
2023-01-21T16:28:11.460Z,15.70
2023-01-21T16:31:27.553Z,14.50
2023-01-21T16:34:47.889Z,14.02
2023-01-21T16:38:02.382Z,14.53
2023-01-21T16:41:31.372Z,15.40
2023-01-21T16:44:40.081Z,12.35
2023-01-21T16:48:03.393Z,12.32
2023-01-21T16:51:20.337Z,14.23
2023-01-21T16:54:32.374Z,18.40
2023-01-21T16:57:49.339Z,12.53
2023-01-21T17:01:11.465Z,15.18
2023-01-21T17:04:26.548Z,14.05
2023-01-21T17:07:33.416Z,12.00
2023-01-21T17:11:00.363Z,15.90
2023-01-21T17:14:08.647Z,21.57
2023-01-21T17:17:29.347Z,13.30
2023-01-21T17:20:43.385Z,13.15
2023-01-21T17:23:58.374Z,14.40
2023-01-21T17:27:17.434Z,14.37
2023-01-21T17:30:31.387Z,19.23
2023-01-21T17:33:48.432Z,12.40
2023-01-21T17:36:57.688Z,14.80
2023-01-21T17:40:32.606Z,12.15
2023-01-21T17:43:41.492Z,14.57
2023-01-21T17:46:56.779Z,12.87
2023-01-21T17:50:24.428Z,12.70
2023-01-21T17:53:28.512Z,12.93
2023-01-21T17:56:47.420Z,11.00
2023-01-21T17:59:49.696Z,12.73
2023-01-21T18:03:05.555Z,12.73
2023-01-21T18:06:17.605Z,16.67
2023-01-21T18:09:32.451Z,12.82
2023-01-21T18:12:34.606Z,14.00
2023-01-21T18:15:50.441Z,17.73
2023-01-21T18:18:52.652Z,16.27
2023-01-21T18:22:09.414Z,16.30
2023-01-21T18:25:19.610Z,15.48
2023-01-21T18:28:34.400Z,15.70
2023-01-21T18:31:50.414Z,15.67
2023-01-21T18:34:52.516Z,16.17
2023-01-21T18:38:07.398Z,16.70
2023-01-21T18:41:11.828Z,14.40
2023-01-21T18:44:26.480Z,15.50
2023-01-21T18:47:28.407Z,18.37
2023-01-21T18:50:44.455Z,19.93
2023-01-21T18:53:53.628Z,19.65
2023-01-21T18:57:09.387Z,19.12
2023-01-21T19:00:26.438Z,19.30
2023-01-21T19:03:36.035Z,18.67
2023-01-21T19:06:45.532Z,18.30
2023-01-21T19:10:00.417Z,17.17
2023-01-21T19:13:08.416Z,16.20
2023-01-21T19:16:26.498Z,14.98
2023-01-21T19:19:28.721Z,14.17
2023-01-21T19:22:44.416Z,15.67
2023-01-21T19:25:58.754Z,16.20
2023-01-21T19:29:15.238Z,17.75
2023-01-21T19:32:23.443Z,15.07
2023-01-21T19:35:35.912Z,13.40
2023-01-21T19:38:59.609Z,14.57
2023-01-21T19:42:08.460Z,17.05
2023-01-21T19:45:25.452Z,15.10
2023-01-21T19:48:47.405Z,13.65
2023-01-21T19:51:49.853Z,13.37
2023-01-21T19:55:04.528Z,13.97
2023-01-21T19:58:16.041Z,13.32
2023-01-21T20:01:31.617Z,13.10
2023-01-21T20:04:40.505Z,17.50
2023-01-21T20:07:50.908Z,14.33
2023-01-21T20:10:59.570Z,15.00
2023-01-21T20:14:08.404Z,11.52
2023-01-21T20:17:19.436Z,14.70
2023-01-21T20:20:38.771Z,14.48
2023-01-21T20:23:48.279Z,14.63
2023-01-21T20:27:05.864Z,16.40
2023-01-21T20:30:18.350Z,15.32
2023-01-21T20:33:34.491Z,15.52
2023-01-21T20:36:44.544Z,15.68
2023-01-21T20:39:53.296Z,11.83
2023-01-21T20:43:03.531Z,16.30
2023-01-21T20:46:31.426Z,13.65
2023-01-21T20:49:46.483Z,20.02
2023-01-21T20:53:01.492Z,13.80
2023-01-21T20:56:23.477Z,14.27
2023-01-21T20:59:39.472Z,15.70
2023-01-21T21:02:48.404Z,13.65
2023-01-21T21:05:56.477Z,14.87
2023-01-21T21:09:05.245Z,15.38
2023-01-21T21:12:14.519Z,14.67
2023-01-21T21:15:29.602Z,15.13
2023-01-21T21:18:31.857Z,17.90
2023-01-21T21:21:46.485Z,16.15
2023-01-21T21:24:48.523Z,15.20
2023-01-21T21:28:03.424Z,14.43
2023-01-21T21:31:20.567Z,16.10
2023-01-21T21:34:22.960Z,15.25
2023-01-21T21:37:37.468Z,15.93
2023-01-21T21:40:39.460Z,13.40
2023-01-21T21:43:54.440Z,13.83
2023-01-21T21:47:17.554Z,17.07
2023-01-21T21:50:32.524Z,12.75
2023-01-21T21:53:47.453Z,16.12
2023-01-21T21:56:56.279Z,13.57
2023-01-21T22:00:04.468Z,16.00
2023-01-21T22:03:13.077Z,15.83
2023-01-21T22:06:24.526Z,14.20
2023-01-21T22:09:40.516Z,15.70
2023-01-21T22:12:42.977Z,17.87
2023-01-21T22:16:02.495Z,13.33
2023-01-21T22:19:04.549Z,15.17
2023-01-21T22:22:19.537Z,14.57
2023-01-21T22:25:27.656Z,14.48
2023-01-21T22:28:37.089Z,15.05
2023-01-21T22:31:46.602Z,13.63
2023-01-21T22:34:55.120Z,13.57
2023-01-21T22:38:09.592Z,12.82
2023-01-21T22:41:15.633Z,11.88
2023-01-21T22:44:30.576Z,13.35
2023-01-21T22:47:52.503Z,13.30
2023-01-21T22:50:57.490Z,11.50
2023-01-21T22:54:12.565Z,10.95
2023-01-21T22:57:21.249Z,12.82
2023-01-21T23:00:41.508Z,11.90
2023-01-21T23:03:54.081Z,11.80
2023-01-21T23:07:02.482Z,11.10
2023-01-21T23:10:17.767Z,10.00
2023-01-21T23:13:19.820Z,15.73
2023-01-21T23:16:34.531Z,11.00
2023-01-21T23:19:36.706Z,8.60
2023-01-21T23:22:52.649Z,10.83
2023-01-21T23:26:01.563Z,12.18
2023-01-21T23:29:10.378Z,10.07
2023-01-21T23:32:25.525Z,9.25
2023-01-21T23:35:27.868Z,9.97
2023-01-21T23:38:45.514Z,10.77
2023-01-21T23:42:01.580Z,12.32
2023-01-21T23:45:10.799Z,13.13
2023-01-21T23:48:33.590Z,9.50
2023-01-21T23:51:41.665Z,11.40
2023-01-21T23:54:50.323Z,10.10
2023-01-21T23:57:58.508Z,11.10
